Accueil
METAR-TAF:

METAR-TAF

Aéroports :

Sleetmute, Alaska, États-Unis

latitude: 61-43N, longitude: 157-09W, altitude: 54 m

Observation

Le bulletin a été fait il y a 6 minutes, à 22:56 UTC
Vent calme
Température -22°C
Humidité 64%
Pression 1013 hPa
Visibilité: 16.1 km
Ciel couvert à une hauteur de 2000 ft
neige faible

METAR: PASL 222256Z AUTO 00000KT 10SM -SN OVC020 M22/M27 A2992 RMK AO2 SLP129 P0000 T12221267 FZRANO

Heure: 14:02 (23:02 UTC)


TAF: absent

Observations et prévisions météorologiques de plus de 4000 aéroports (messages METAR et TAF).

Les stations disponibles sont représentées par des disques jaunes et rouges sur la carte.

Passer la souris dessus pour voir le nom de la station.

Cliquer dessus pour voir les observations et prévisions météorologiques.

Pour changer de carte: cliquez sur les boutons verts avec une croix noire pour zoomer, sur le bouton vert avec un tiret pour effectuer un zoom arrière, ou sur les flèches vertes pour les cartes adjacentes.


METAR-TAF: